Time;durP1;ratioP1;P1;durP2;ratioP2;P2;SDS_P1;SDS_P2;PMS_P1;PMS_P2;Temp;Humidity;BMP_temperature;BMP_pressure;BME280_temperature;BME280_humidity;BME280_pressure;Samples;Min_cycle;Max_cycle;Signal;HPM_P1;HPM_P2
2023/03/02 00:02:21;;;;;;;5.60;1.70;;;;;;;5.05;45.17;98555.66;5043619;28;20052;-63
2023/03/02 00:04:51;;;;;;;7.47;2.03;;;;;;;5.36;45.00;98564.00;5043847;28;20038;-62
2023/03/02 00:07:24;;;;;;;5.23;1.70;;;;;;;5.44;45.00;98553.56;5054767;28;20147;-60
2023/03/02 00:09:50;;;;;;;4.30;1.80;;;;;;;4.95;44.50;98560.16;5080184;28;20043;-60
2023/03/02 00:12:16;;;;;;;5.50;2.40;;;;;;;5.06;45.05;98553.84;5063932;28;20062;-61
2023/03/02 00:14:42;;;;;;;6.47;2.80;;;;;;;5.08;44.83;98547.47;5063208;28;20040;-62
2023/03/02 00:17:09;;;;;;;6.77;2.60;;;;;;;5.07;44.78;98548.44;5063394;28;20066;-62
2023/03/02 00:19:35;;;;;;;7.87;2.40;;;;;;;5.12;44.70;98553.25;5063654;28;20140;-61
2023/03/02 00:22:01;;;;;;;6.77;2.37;;;;;;;5.01;44.94;98556.94;5063406;28;20043;-63
2023/03/02 00:24:27;;;;;;;4.50;2.10;;;;;;;4.95;44.94;98562.78;5046556;28;20479;-64
2023/03/02 00:26:53;;;;;;;10.13;2.13;;;;;;;4.88;44.79;98568.78;5045215;28;20058;-62
2023/03/02 00:29:19;;;;;;;5.40;1.80;;;;;;;4.87;44.97;98569.78;5046693;28;20043;-63
2023/03/02 00:31:45;;;;;;;3.47;1.60;;;;;;;4.91;45.04;98564.06;5063010;28;20532;-62
2023/03/02 00:34:10;;;;;;;4.57;1.40;;;;;;;4.92;44.71;98559.66;5046521;28;20055;-62
2023/03/02 00:36:37;;;;;;;4.13;1.50;;;;;;;5.09;44.58;98548.28;5079279;28;20078;-62
2023/03/02 00:39:03;;;;;;;3.80;1.37;;;;;;;5.07;44.39;98555.53;5079565;28;20479;-60
2023/03/02 00:41:29;;;;;;;4.83;1.70;;;;;;;5.06;44.04;98564.38;5096322;28;20147;-61
2023/03/02 00:43:55;;;;;;;2.67;1.50;;;;;;;5.08;44.18;98562.44;5079420;28;20047;-61
2023/03/02 00:46:23;;;;;;;6.30;1.83;;;;;;;5.18;44.18;98565.81;5062970;28;20084;-61
2023/03/02 00:48:49;;;;;;;3.60;2.50;;;;;;;5.22;43.97;98575.91;5045836;28;20038;-61
2023/03/02 00:51:16;;;;;;;3.93;1.53;;;;;;;5.31;43.84;98583.84;5079612;28;20055;-61
2023/03/02 00:53:42;;;;;;;5.23;1.60;;;;;;;5.26;43.70;98592.19;5079513;28;20100;-63
2023/03/02 00:56:09;;;;;;;4.13;1.67;;;;;;;5.38;43.52;98591.03;5077862;28;20384;-61
2023/03/02 00:58:39;;;;;;;4.47;1.60;;;;;;;5.24;43.24;98589.72;5079997;28;20126;-62
2023/03/02 01:01:10;;;;;;;4.97;1.90;;;;;;;5.38;43.32;98575.22;5061900;28;20080;-63
2023/03/02 01:03:39;;;;;;;6.50;1.60;;;;;;;5.26;43.12;98608.00;5062786;28;20047;-61
2023/03/02 01:06:05;;;;;;;3.03;1.47;;;;;;;5.22;42.71;98618.00;5095886;28;20079;-63
2023/03/02 01:08:31;;;;;;;3.60;1.77;;;;;;;5.27;42.26;98616.72;5045994;28;20040;-61
2023/03/02 01:11:00;;;;;;;2.93;1.70;;;;;;;5.20;42.16;98616.50;5062639;28;20375;-62
2023/03/02 01:13:27;;;;;;;2.67;1.70;;;;;;;5.27;42.21;98608.84;5063174;28;20062;-60
2023/03/02 01:16:03;;;;;;;4.20;1.50;;;;;;;5.67;41.96;98606.56;5045767;28;20036;-61
2023/03/02 01:18:29;;;;;;;2.50;1.90;;;;;;;5.17;41.86;98604.47;5078881;28;20436;-62
2023/03/02 01:21:05;;;;;;;3.27;1.60;;;;;;;5.65;41.89;98597.97;5045555;28;20075;-62
2023/03/02 01:23:31;;;;;;;2.63;1.57;;;;;;;4.93;41.54;98608.66;5078685;28;20383;-61
2023/03/02 01:25:57;;;;;;;5.77;1.60;;;;;;;5.06;41.51;98603.84;5062201;28;20483;-63
2023/03/02 01:28:23;;;;;;;5.97;1.77;;;;;;;5.11;41.30;98615.59;5061977;28;20533;-61
2023/03/02 01:30:49;;;;;;;2.13;1.30;;;;;;;5.07;40.46;98613.41;5077370;28;20343;-62
2023/03/02 01:33:15;;;;;;;6.07;1.47;;;;;;;5.13;40.03;98613.66;5060110;28;20558;-62
2023/03/02 01:35:44;;;;;;;5.43;1.50;;;;;;;5.42;39.95;98618.69;5044494;28;20437;-63
2023/03/02 01:38:10;;;;;;;2.40;1.37;;;;;;;5.01;39.60;98614.00;5043593;28;20047;-64
2023/03/02 01:40:36;;;;;;;2.03;1.33;;;;;;;5.01;39.55;98627.16;5060789;28;20048;-64
2023/03/02 01:43:03;;;;;;;1.70;1.13;;;;;;;4.94;39.33;98600.59;5078509;28;20051;-62
2023/03/02 01:45:54;;;;;;;1.57;1.47;;;;;;;5.42;39.59;98625.75;5078386;28;20039;-61
2023/03/02 01:48:39;;;;;;;2.55;1.40;;;;;;;4.88;39.36;98608.25;5062967;28;20055;-63
2023/03/02 01:51:06;;;;;;;5.23;1.40;;;;;;;5.20;39.33;98609.44;5061656;28;20435;-63
2023/03/02 01:53:34;;;;;;;3.93;1.30;;;;;;;5.19;39.57;98612.22;5078792;28;20479;-62
2023/03/02 01:56:02;;;;;;;3.00;1.50;;;;;;;5.19;39.29;98606.94;5078149;28;20057;-64
2023/03/02 01:58:31;;;;;;;1.50;1.27;;;;;;;5.30;39.43;98588.31;5061593;28;20343;-63
2023/03/02 02:00:57;;;;;;;1.90;1.23;;;;;;;5.01;39.01;98599.03;5061587;28;20047;-64
2023/03/02 02:03:25;;;;;;;1.50;1.30;;;;;;;5.19;39.00;98599.06;5045099;28;20429;-64
2023/03/02 02:06:16;;;;;;;4.10;1.67;;;;;;;5.33;38.72;98619.59;5112778;28;20127;-65
2023/03/02 02:08:44;;;;;;;2.50;1.20;;;;;;;4.96;38.08;98635.50;5050656;28;20043;-60
2023/03/02 02:11:11;;;;;;;2.27;1.10;;;;;;;4.85;38.08;98640.94;5061364;28;20134;-61
2023/03/02 02:13:37;;;;;;;4.67;1.40;;;;;;;4.66;38.29;98634.94;5077802;28;20105;-61
2023/03/02 02:16:04;;;;;;;1.67;1.20;;;;;;;4.74;38.61;98633.25;5077552;28;20475;-62
2023/03/02 02:18:30;;;;;;;3.77;1.40;;;;;;;4.72;38.45;98643.06;5061429;28;20046;-61
2023/03/02 02:20:56;;;;;;;3.30;1.33;;;;;;;4.76;38.53;98638.38;5077708;28;20043;-64
2023/03/02 02:23:27;;;;;;;4.00;1.80;;;;;;;4.73;38.70;98617.63;5044233;28;20047;-63
2023/03/02 02:25:57;;;;;;;2.03;1.30;;;;;;;4.77;38.82;98630.31;5061022;28;20383;-63
2023/03/02 02:28:42;;;;;;;2.40;1.20;;;;;;;5.23;38.80;98638.09;5060767;28;20047;-63
2023/03/02 02:31:15;;;;;;;2.93;1.20;;;;;;;5.12;38.63;98642.72;5060911;28;20043;-63
2023/03/02 02:33:44;;;;;;;4.17;1.60;;;;;;;4.95;38.57;98644.34;5077185;28;20086;-63
2023/03/02 02:36:18;;;;;;;2.47;1.60;;;;;;;5.09;38.65;98635.13;5077459;28;20585;-63
2023/03/02 02:38:46;;;;;;;5.13;1.40;;;;;;;5.04;38.44;98653.19;5060590;28;20459;-60
2023/03/02 02:41:20;;;;;;;2.25;1.55;;;;;;;5.12;38.66;98646.19;5077960;28;20058;-61
2023/03/02 02:43:47;;;;;;;1.83;1.13;;;;;;;4.91;38.38;98643.00;5056931;28;20048;-62
2023/03/02 02:46:14;;;;;;;4.73;1.57;;;;;;;4.94;38.15;98629.53;5024679;28;20044;-63
2023/03/02 02:48:40;;;;;;;2.30;1.40;;;;;;;4.85;37.98;98635.69;5056595;28;20044;-62
2023/03/02 02:51:08;;;;;;;2.70;1.47;;;;;;;5.18;38.03;98647.41;5025250;28;20491;-62
2023/03/02 02:53:47;;;;;;;2.37;1.40;;;;;;;5.33;38.24;98635.38;5061238;28;20501;-64
2023/03/02 02:56:13;;;;;;;5.43;1.53;;;;;;;5.03;38.18;98644.44;5040380;28;20090;-64
2023/03/02 02:58:51;;;;;;;3.50;1.47;;;;;;;5.09;38.08;98643.00;5057698;28;20063;-61
2023/03/02 03:01:19;;;;;;;4.30;1.50;;;;;;;5.00;37.80;98652.63;5057721;28;20495;-58
2023/03/02 03:03:50;;;;;;;2.93;1.67;;;;;;;4.98;37.90;98644.03;5041662;28;20140;-58
2023/03/02 03:06:22;;;;;;;1.73;1.20;;;;;;;4.94;37.81;98655.00;5058189;28;20048;-60
2023/03/02 03:08:52;;;;;;;2.30;1.47;;;;;;;4.93;37.93;98659.47;5058134;28;20045;-59
2023/03/02 03:11:29;;;;;;;2.57;1.40;;;;;;;4.98;37.81;98665.09;5059324;28;20094;-59
2023/03/02 03:14:07;;;;;;;4.53;1.37;;;;;;;4.95;38.04;98657.50;5074260;28;20406;-56
2023/03/02 03:16:35;;;;;;;4.37;1.43;;;;;;;4.84;38.08;98659.50;5040955;28;20107;-60
2023/03/02 03:19:26;;;;;;;1.80;1.10;;;;;;;4.95;38.31;98677.75;5041018;28;20134;-62
2023/03/02 03:21:55;;;;;;;1.63;1.20;;;;;;;4.73;38.49;98659.69;5074085;28;20056;-60
2023/03/02 03:24:29;;;;;;;1.97;1.30;;;;;;;4.62;38.48;98673.84;5057570;28;20379;-62
2023/03/02 03:26:57;;;;;;;3.07;1.10;;;;;;;4.44;38.83;98685.28;5041496;28;20139;-62
2023/03/02 03:29:26;;;;;;;2.67;1.30;;;;;;;4.48;39.08;98670.84;5041887;28;20068;-65
2023/03/02 03:31:56;;;;;;;2.93;1.33;;;;;;;4.53;39.24;98681.78;5058017;28;20136;-63
2023/03/02 03:34:24;;;;;;;3.07;1.40;;;;;;;4.27;39.35;98681.59;5024326;28;20476;-64
2023/03/02 03:36:51;;;;;;;3.03;1.50;;;;;;;4.24;39.75;98676.59;5057149;28;20033;-62
2023/03/02 03:39:18;;;;;;;7.20;1.60;;;;;;;4.27;39.79;98673.69;5040535;28;20067;-64
2023/03/02 03:41:44;;;;;;;2.67;1.40;;;;;;;4.31;39.53;98666.34;5040764;28;20125;-63
2023/03/02 03:44:10;;;;;;;2.00;1.57;;;;;;;4.25;39.61;98659.88;5057107;28;20464;-63
2023/03/02 03:46:38;;;;;;;5.13;2.63;;;;;;;4.18;39.70;98669.25;5040544;28;20040;-64
2023/03/02 03:49:04;;;;;;;5.93;3.17;;;;;;;4.29;39.87;98665.66;5038283;28;20040;-65
2023/03/02 03:51:34;;;;;;;7.07;2.60;;;;;;;4.31;39.85;98667.19;5054078;28;20045;-65
2023/03/02 03:54:02;;;;;;;1.40;1.17;;;;;;;4.37;40.07;98661.34;5040977;28;20044;-64
2023/03/02 03:56:39;;;;;;;5.67;1.73;;;;;;;4.49;40.00;98652.31;5055358;28;20114;-67
2023/03/02 03:59:07;;;;;;;2.70;1.60;;;;;;;4.39;40.26;98650.69;5057194;28;20106;-64
2023/03/02 04:01:44;;;;;;;3.37;1.37;;;;;;;4.54;40.16;98647.44;5041641;28;20126;-64
2023/03/02 04:04:14;;;;;;;2.90;1.80;;;;;;;4.53;40.21;98656.31;5056973;28;20047;-64
2023/03/02 04:06:40;;;;;;;2.23;1.73;;;;;;;4.29;40.02;98642.03;5056878;28;20493;-65
2023/03/02 04:09:06;;;;;;;3.33;1.70;;;;;;;4.33;39.98;98656.53;5040145;28;20138;-65
2023/03/02 04:11:35;;;;;;;2.93;1.50;;;;;;;4.47;39.96;98656.91;5040764;28;20142;-64
2023/03/02 04:14:01;;;;;;;3.80;1.60;;;;;;;4.28;39.88;98670.09;5023714;28;20133;-64
2023/03/02 04:16:28;;;;;;;3.07;1.83;;;;;;;4.46;39.78;98662.31;5040093;28;20044;-64
2023/03/02 04:18:54;;;;;;;5.50;1.73;;;;;;;4.42;39.57;98663.53;5056561;28;20939;-64
2023/03/02 04:21:21;;;;;;;1.97;1.47;;;;;;;4.48;39.63;98662.97;5040071;28;20121;-64
2023/03/02 04:23:47;;;;;;;5.37;1.87;;;;;;;4.44;39.89;98656.34;5023486;28;20128;-64
2023/03/02 04:26:13;;;;;;;3.67;1.63;;;;;;;4.28;40.11;98661.38;5073429;28;20515;-64
2023/03/02 04:28:39;;;;;;;5.83;1.77;;;;;;;4.36;40.26;98664.13;5023537;28;20051;-64
2023/03/02 04:31:05;;;;;;;3.13;1.57;;;;;;;4.48;40.10;98678.75;5056673;28;20067;-66
2023/03/02 04:33:31;;;;;;;3.80;1.70;;;;;;;4.46;40.23;98678.06;5056428;28;20091;-64
2023/03/02 04:35:57;;;;;;;3.77;1.87;;;;;;;4.49;40.43;98678.59;5039589;28;20040;-64
2023/03/02 04:38:23;;;;;;;2.17;1.60;;;;;;;4.35;40.65;98672.97;5039859;28;20135;-64
2023/03/02 04:40:49;;;;;;;5.77;1.90;;;;;;;4.32;41.17;98668.81;5039599;28;20369;-64
2023/03/02 04:43:15;;;;;;;3.63;2.20;;;;;;;4.32;41.09;98681.97;5039479;28;20131;-64
2023/03/02 04:45:40;;;;;;;4.53;2.30;;;;;;;4.29;40.76;98689.31;5023129;28;20067;-64
2023/03/02 04:48:07;;;;;;;10.00;2.47;;;;;;;4.40;40.62;98697.84;5039609;28;20076;-66
2023/03/02 04:50:33;;;;;;;4.97;2.00;;;;;;;4.30;40.67;98693.59;5039867;28;20037;-64
2023/03/02 04:52:59;;;;;;;3.57;1.90;;;;;;;4.27;40.36;98681.59;5055949;28;20044;-64
2023/03/02 04:55:26;;;;;;;2.53;1.90;;;;;;;4.58;40.34;98704.03;5037258;28;20060;-64
2023/03/02 04:57:54;;;;;;;3.97;2.03;;;;;;;4.34;39.99;98708.09;5022953;28;20051;-64
2023/03/02 05:00:20;;;;;;;5.40;2.13;;;;;;;4.31;40.09;98709.22;5039348;28;20052;-64
2023/03/02 05:02:46;;;;;;;3.30;2.20;;;;;;;4.47;39.89;98720.00;5039098;28;20110;-65
2023/03/02 05:05:18;;;;;;;5.80;1.93;;;;;;;4.67;40.00;98715.50;5055821;28;20036;-64
2023/03/02 05:07:44;;;;;;;4.90;2.07;;;;;;;4.37;40.00;98726.22;5055594;28;20036;-64
2023/03/02 05:10:11;;;;;;;3.73;1.70;;;;;;;4.53;39.76;98742.25;5055589;28;20139;-64
2023/03/02 05:12:53;;;;;;;8.17;1.90;;;;;;;4.29;39.97;98745.31;5055292;28;20118;-64
2023/03/02 05:15:21;;;;;;;;;;;;;;;4.91;39.64;98760.53;5041692;28;20043;-64
2023/03/02 05:17:47;;;;;;;1.67;1.57;;;;;;;4.35;39.70;98762.34;5038932;28;19920;-64
2023/03/02 05:20:13;;;;;;;8.70;2.13;;;;;;;4.41;39.67;98759.16;5038714;28;20143;-64
2023/03/02 05:22:39;;;;;;;3.43;1.90;;;;;;;4.24;39.63;98758.06;5039250;28;20483;-63
2023/03/02 05:25:05;;;;;;;4.63;1.80;;;;;;;4.43;39.77;98772.97;5038977;28;20038;-64
2023/03/02 05:27:31;;;;;;;2.80;1.90;;;;;;;4.45;39.69;98781.56;5055479;28;20044;-64
2023/03/02 05:29:57;;;;;;;3.57;1.97;;;;;;;4.41;39.44;98770.47;5038601;28;20439;-64
2023/03/02 05:32:23;;;;;;;4.33;1.60;;;;;;;4.42;39.55;98773.94;5055111;28;20048;-64
2023/03/02 05:34:51;;;;;;;3.23;1.67;;;;;;;4.43;39.43;98765.06;5022202;28;20043;-65
2023/03/02 05:37:16;;;;;;;2.30;1.60;;;;;;;4.46;39.41;98772.72;5038686;28;20047;-64
2023/03/02 05:39:42;;;;;;;2.57;1.40;;;;;;;4.47;39.53;98772.56;5071763;28;20041;-64
2023/03/02 05:42:09;;;;;;;3.07;1.70;;;;;;;4.63;39.86;98770.16;5038627;28;20465;-64
2023/03/02 05:44:34;;;;;;;3.00;1.70;;;;;;;4.52;39.61;98769.53;5038861;28;20117;-64
2023/03/02 05:47:00;;;;;;;3.70;1.70;;;;;;;4.60;39.72;98767.81;5022036;28;20471;-64
2023/03/02 05:49:26;;;;;;;2.80;2.00;;;;;;;4.57;39.97;98785.69;5038444;28;20052;-65
2023/03/02 05:51:52;;;;;;;3.87;2.23;;;;;;;4.66;39.83;98783.03;5038176;28;20044;-64
2023/03/02 05:54:17;;;;;;;4.60;1.90;;;;;;;4.75;39.81;98782.19;5038366;28;20094;-64
2023/03/02 05:56:43;;;;;;;6.83;1.90;;;;;;;4.81;40.08;98775.53;5032783;28;20056;-64
2023/03/02 05:59:09;;;;;;;5.47;2.40;;;;;;;4.92;40.04;98784.06;5018901;28;20049;-65
2023/03/02 06:01:35;;;;;;;3.80;2.20;;;;;;;4.99;40.42;98772.03;5018570;28;20055;-64
2023/03/02 06:04:01;;;;;;;3.83;1.87;;;;;;;5.21;40.40;98776.88;5034977;28;20055;-64
2023/03/02 06:06:27;;;;;;;4.77;2.03;;;;;;;5.25;40.18;98785.34;5034976;28;20049;-65
2023/03/02 06:08:53;;;;;;;3.63;2.10;;;;;;;5.29;40.41;98794.59;5018270;28;20083;-65
2023/03/02 06:11:19;;;;;;;4.13;2.10;;;;;;;5.32;40.12;98798.75;5034561;28;20117;-64
2023/03/02 06:13:44;;;;;;;5.90;2.50;;;;;;;5.40;40.60;98789.13;5051472;28;20072;-64
2023/03/02 06:16:10;;;;;;;3.97;1.80;;;;;;;5.53;40.57;98797.53;5018505;28;20362;-64
2023/03/02 06:18:36;;;;;;;5.67;2.67;;;;;;;5.52;39.90;98800.31;5018340;28;20069;-64
2023/03/02 06:21:03;;;;;;;5.27;2.13;;;;;;;5.50;39.83;98805.75;5034550;28;20129;-64
2023/03/02 06:23:28;;;;;;;4.27;2.27;;;;;;;5.57;39.97;98816.50;5018213;28;20044;-64
2023/03/02 06:25:54;;;;;;;5.03;2.67;;;;;;;5.50;39.53;98818.06;5018069;28;20553;-64
2023/03/02 06:28:20;;;;;;;3.77;2.20;;;;;;;5.31;39.90;98816.34;5001917;28;20041;-64
2023/03/02 06:30:47;;;;;;;6.10;2.53;;;;;;;5.58;40.66;98805.81;5050944;28;20049;-65
2023/03/02 06:33:18;;;;;;;4.80;2.30;;;;;;;5.71;40.71;98805.47;5001759;28;20052;-64
2023/03/02 06:35:44;;;;;;;4.38;2.13;;;;;;;5.50;40.33;98811.00;5051029;28;20083;-65
2023/03/02 06:38:10;;;;;;;5.70;2.70;;;;;;;5.63;40.28;98806.22;5051165;28;20075;-64
2023/03/02 06:40:35;;;;;;;5.17;2.50;;;;;;;5.74;40.16;98800.75;5017909;28;20049;-64
2023/03/02 06:43:01;;;;;;;5.90;2.07;;;;;;;5.83;39.96;98799.03;5001617;28;20041;-64
2023/03/02 06:45:28;;;;;;;4.57;2.30;;;;;;;6.01;40.11;98803.34;5017947;28;20130;-64
2023/03/02 06:47:54;;;;;;;6.13;2.50;;;;;;;6.12;39.65;98797.88;5033708;28;20051;-64
2023/03/02 06:50:20;;;;;;;4.13;2.10;;;;;;;6.05;39.46;98791.56;5050674;28;20150;-64
2023/03/02 06:52:46;;;;;;;4.10;2.20;;;;;;;6.16;39.35;98793.13;5017732;28;20091;-64
2023/03/02 06:55:12;;;;;;;3.33;2.23;;;;;;;6.36;39.51;98784.91;5017971;28;20118;-64
2023/03/02 06:57:38;;;;;;;4.57;2.70;;;;;;;6.75;38.89;98793.25;5018011;28;20542;-64
2023/03/02 07:00:08;;;;;;;4.33;2.23;;;;;;;6.95;37.77;98770.16;5033913;28;20106;-64
2023/03/02 07:02:35;;;;;;;6.27;2.70;;;;;;;7.09;37.29;98778.31;5034192;28;20045;-64
2023/03/02 07:05:01;;;;;;;3.17;2.10;;;;;;;7.13;35.99;98773.56;5050693;28;20132;-64
2023/03/02 07:07:27;;;;;;;4.67;1.90;;;;;;;7.50;35.74;98756.41;5017551;28;20512;-64
2023/03/02 07:09:53;;;;;;;4.40;2.13;;;;;;;7.78;34.86;98759.63;5017624;28;20068;-64
2023/03/02 07:12:19;;;;;;;5.07;2.17;;;;;;;8.19;34.51;98762.16;5017641;28;20469;-64
2023/03/02 07:14:44;;;;;;;6.37;1.83;;;;;;;8.76;33.78;98756.88;5017468;28;20083;-66
2023/03/02 07:17:10;;;;;;;2.97;2.07;;;;;;;9.20;32.19;98766.84;5017621;28;20056;-65
2023/03/02 07:19:37;;;;;;;2.40;2.10;;;;;;;9.43;31.47;98765.13;5017613;28;20060;-64
2023/03/02 07:22:04;;;;;;;4.40;2.30;;;;;;;9.94;31.04;98769.84;5033841;28;20539;-64
2023/03/02 07:24:31;;;;;;;6.17;3.07;;;;;;;9.97;30.22;98768.66;5050589;28;20102;-64
2023/03/02 07:26:57;;;;;;;4.20;1.70;;;;;;;9.57;29.95;98761.75;5050349;28;20045;-64
2023/03/02 07:29:22;;;;;;;8.47;2.03;;;;;;;8.96;30.66;98763.44;5050563;28;20051;-65
2023/03/02 07:31:54;;;;;;;3.83;2.20;;;;;;;8.88;30.68;98761.66;5017378;28;20139;-64
2023/03/02 07:34:20;;;;;;;3.90;2.40;;;;;;;8.79;30.62;98757.38;5018037;28;20065;-65
2023/03/02 07:36:45;;;;;;;3.60;2.20;;;;;;;9.19;30.53;98759.91;5019072;28;20416;-66
2023/03/02 07:39:11;;;;;;;4.53;2.43;;;;;;;9.25;30.40;98753.09;5054476;28;20041;-65
2023/03/02 07:41:37;;;;;;;7.10;2.37;;;;;;;9.01;30.15;98755.81;5021095;28;20049;-67
2023/03/02 07:44:03;;;;;;;4.13;2.30;;;;;;;8.84;30.17;98755.00;5004717;28;20044;-66
2023/03/02 07:46:29;;;;;;;4.63;2.60;;;;;;;8.51;30.44;98758.72;5020836;28;20044;-64
2023/03/02 07:48:55;;;;;;;7.27;2.70;;;;;;;8.43;30.90;98751.59;5020798;28;20040;-65
2023/03/02 07:51:20;;;;;;;4.43;2.33;;;;;;;8.33;30.88;98755.41;5053980;28;20056;-64
2023/03/02 07:53:46;;;;;;;3.53;1.90;;;;;;;7.82;30.89;98760.94;5020788;28;20103;-68
2023/03/02 07:56:12;;;;;;;5.93;2.03;;;;;;;7.77;31.12;98763.22;5070673;28;20051;-64
2023/03/02 07:58:37;;;;;;;4.80;2.27;;;;;;;7.77;31.22;98769.34;5043868;28;20070;-65
2023/03/02 08:01:03;;;;;;;9.77;3.90;;;;;;;7.80;31.60;98773.47;5043790;28;20040;-64
2023/03/02 08:03:29;;;;;;;6.60;2.67;;;;;;;7.79;31.14;98766.53;5043705;28;20044;-64
2023/03/02 08:05:55;;;;;;;20.40;3.40;;;;;;;7.78;31.29;98765.69;5043621;28;20494;-64
2023/03/02 08:08:21;;;;;;;11.70;3.43;;;;;;;7.92;30.54;98775.66;5094939;28;20411;-65
2023/03/02 08:10:47;;;;;;;4.97;1.80;;;;;;;7.73;30.60;98765.38;5043817;28;20048;-65
2023/03/02 08:13:12;;;;;;;6.33;2.03;;;;;;;7.84;30.42;98758.97;5043812;28;20051;-64
2023/03/02 08:15:38;;;;;;;4.93;2.47;;;;;;;7.79;29.83;98771.81;5059941;28;20040;-65
2023/03/02 08:18:04;;;;;;;3.23;2.00;;;;;;;7.82;29.97;98760.94;5043675;28;20506;-65
2023/03/02 08:20:30;;;;;;;3.60;2.20;;;;;;;7.84;29.88;98756.31;5060118;28;20044;-64
2023/03/02 08:22:56;;;;;;;3.27;1.60;;;;;;;7.20;29.63;98738.44;5043310;28;20051;-64
2023/03/02 08:25:22;;;;;;;2.77;1.70;;;;;;;7.38;29.68;98746.28;5043340;28;20047;-64
2023/03/02 08:27:47;;;;;;;3.53;1.60;;;;;;;7.47;29.41;98750.59;5043294;28;20051;-64
2023/03/02 08:30:14;;;;;;;2.63;1.63;;;;;;;7.69;29.09;98742.88;5076884;28;20032;-64
2023/03/02 08:32:39;;;;;;;3.17;1.50;;;;;;;7.86;28.90;98741.09;5059927;28;20070;-64
2023/03/02 08:35:06;;;;;;;2.80;1.70;;;;;;;8.04;29.07;98737.31;5043179;28;20048;-64
2023/03/02 08:37:32;;;;;;;2.37;1.60;;;;;;;8.31;28.87;98739.72;5059594;28;20063;-66
2023/03/02 08:39:58;;;;;;;2.10;1.63;;;;;;;8.23;28.63;98739.69;5059544;28;20056;-65
2023/03/02 08:42:24;;;;;;;4.17;1.90;;;;;;;8.19;28.75;98732.22;5026471;28;20067;-64
2023/03/02 08:44:50;;;;;;;3.33;1.70;;;;;;;8.36;28.57;98747.16;5043172;28;20139;-64
2023/03/02 08:47:16;;;;;;;4.03;2.13;;;;;;;8.55;28.38;98750.28;5042401;28;20071;-65
2023/03/02 08:49:41;;;;;;;2.43;1.80;;;;;;;8.23;27.81;98749.44;5042186;28;20148;-65
2023/03/02 08:52:07;;;;;;;3.63;2.30;;;;;;;8.11;28.31;98746.28;5059622;28;20044;-64
2023/03/02 08:54:33;;;;;;;4.47;2.43;;;;;;;8.00;28.71;98743.94;5026369;28;20047;-64
2023/03/02 08:57:00;;;;;;;4.03;2.17;;;;;;;7.91;29.08;98739.63;5026210;28;20064;-64
2023/03/02 08:59:26;;;;;;;4.93;1.90;;;;;;;7.67;28.99;98741.41;5059095;28;20113;-64
2023/03/02 09:01:51;;;;;;;2.47;1.70;;;;;;;7.68;29.48;98725.41;5026122;28;20052;-64
2023/03/02 09:04:17;;;;;;;4.87;2.20;;;;;;;7.67;29.51;98734.28;5059581;28;20048;-64
2023/03/02 09:06:44;;;;;;;3.90;2.00;;;;;;;7.90;29.49;98724.75;5059448;28;20081;-64
2023/03/02 09:09:11;;;;;;;3.63;1.87;;;;;;;7.94;29.31;98734.03;5059134;28;20035;-64
2023/03/02 09:11:37;;;;;;;4.40;1.53;;;;;;;7.71;29.23;98742.72;5042291;28;20040;-64
2023/03/02 09:14:04;;;;;;;3.20;1.90;;;;;;;7.52;29.50;98727.16;5042422;28;20143;-65
2023/03/02 09:16:30;;;;;;;2.90;1.90;;;;;;;7.40;29.22;98728.44;5026070;28;20044;-64
2023/03/02 09:18:56;;;;;;;3.27;1.87;;;;;;;7.52;29.78;98732.47;5042352;28;20480;-65
2023/03/02 09:21:24;;;;;;;4.27;2.13;;;;;;;7.47;29.96;98747.94;5042469;28;20059;-65
2023/03/02 09:23:54;;;;;;;5.17;2.07;;;;;;;7.00;30.15;98744.09;5059312;28;20079;-64
2023/03/02 09:26:21;;;;;;;3.80;1.90;;;;;;;7.16;30.93;98736.25;5042714;28;20035;-64
2023/03/02 09:28:49;;;;;;;5.53;1.90;;;;;;;6.88;30.80;98736.47;5075570;28;20109;-65
2023/03/02 09:31:15;;;;;;;3.60;1.90;;;;;;;7.00;30.78;98736.19;5059543;28;20048;-64
2023/03/02 09:33:41;;;;;;;4.80;1.83;;;;;;;7.02;30.58;98737.69;5042368;28;20824;-64
2023/03/02 09:36:10;;;;;;;3.07;1.90;;;;;;;7.22;30.72;98738.28;5042190;28;20151;-64
2023/03/02 09:38:36;;;;;;;3.97;1.63;;;;;;;7.60;30.09;98735.09;5058753;28;20558;-65
2023/03/02 09:41:11;;;;;;;3.40;1.80;;;;;;;8.05;29.65;98730.22;5058572;28;20135;-64
2023/03/02 09:43:49;;;;;;;1.97;1.40;;;;;;;7.49;29.31;98727.50;5058397;28;20044;-64
2023/03/02 09:46:17;;;;;;;7.50;1.40;;;;;;;7.43;29.44;98726.31;5058374;28;20472;-64
2023/03/02 09:48:57;;;;;;;1.70;1.53;;;;;;;7.37;29.88;98726.13;5058585;28;20121;-64
2023/03/02 09:51:34;;;;;;;2.40;1.23;;;;;;;7.60;29.74;98712.16;5058519;28;20058;-64
2023/03/02 09:54:15;;;;;;;3.10;1.50;;;;;;;7.94;29.32;98709.41;5058401;28;20391;-65
2023/03/02 09:56:56;;;;;;;2.58;1.70;;;;;;;8.04;28.96;98718.81;5041641;28;20113;-65
2023/03/02 09:59:31;;;;;;;3.22;1.50;;;;;;;7.93;28.82;98711.19;5041518;28;20086;-64
2023/03/02 10:02:20;;;;;;;2.70;1.60;;;;;;;8.21;28.65;98693.22;5058354;28;20051;-64
2023/03/02 10:04:47;;;;;;;2.40;1.60;;;;;;;7.60;28.82;98687.53;5057984;28;20459;-64
2023/03/02 10:07:32;;;;;;;1.87;1.40;;;;;;;8.12;28.59;98696.84;5074837;28;20059;-64
2023/03/02 10:10:36;;;;;;;2.47;1.60;;;;;;;8.65;28.31;98691.88;5057984;28;20058;-64
2023/03/02 10:13:05;;;;;;;3.03;1.67;;;;;;;7.76;29.30;98690.22;5057797;28;20048;-64
2023/03/02 10:15:41;;;;;;;2.63;1.87;;;;;;;6.96;30.44;98682.91;5057705;28;20399;-64
2023/03/02 10:18:34;;;;;;;2.63;1.70;;;;;;;7.26;30.16;98700.03;5092365;28;20044;-64
2023/03/02 10:21:41;;;;;;;5.50;2.00;;;;;;;7.34;30.22;98687.66;5041152;28;20036;-64
2023/03/02 10:24:10;;;;;;;2.47;1.50;;;;;;;7.76;29.54;98677.00;4942375;28;20045;-65
2023/03/02 10:27:00;;;;;;;1.63;1.43;;;;;;;8.03;29.20;98660.81;4958807;28;20081;-64
2023/03/02 10:29:30;;;;;;;3.80;2.27;;;;;;;8.21;28.43;98675.53;5006965;28;20064;-65
2023/03/02 10:32:07;;;;;;;2.25;1.48;;;;;;;8.96;27.96;98655.72;5024766;28;20044;-67
2023/03/02 10:34:34;;;;;;;3.90;2.00;;;;;;;9.02;27.52;98662.13;5041061;28;20036;-64
2023/03/02 10:36:59;;;;;;;1.97;1.40;;;;;;;9.13;26.81;98659.13;5057501;28;20070;-65
2023/03/02 10:39:25;;;;;;;2.50;1.60;;;;;;;9.25;26.93;98652.44;5041007;28;20051;-68
2023/03/02 10:42:01;;;;;;;1.70;1.60;;;;;;;10.04;26.93;98643.09;5024870;28;20090;-64
2023/03/02 10:44:36;;;;;;;4.27;1.60;;;;;;;9.83;26.41;98656.19;5074388;28;20135;-64
2023/03/02 10:47:03;;;;;;;2.97;1.60;;;;;;;9.59;26.17;98648.44;5025053;28;20137;-64
2023/03/02 10:49:30;;;;;;;2.37;1.80;;;;;;;9.63;26.80;98632.97;5057726;28;20052;-65
2023/03/02 10:51:56;;;;;;;2.90;1.93;;;;;;;9.26;27.09;98636.34;5057787;28;20059;-66
2023/03/02 10:54:22;;;;;;;5.20;1.90;;;;;;;9.20;26.76;98641.50;5057622;28;20070;-64
2023/03/02 10:56:52;;;;;;;3.10;2.00;;;;;;;8.94;27.25;98644.47;5040815;28;20055;-64
2023/03/02 10:59:24;;;;;;;2.80;2.17;;;;;;;8.84;27.62;98638.53;5057364;28;20419;-65
2023/03/02 11:02:01;;;;;;;3.80;1.67;;;;;;;8.77;28.19;98629.63;5057367;28;20097;-65
2023/03/02 11:04:28;;;;;;;2.97;2.13;;;;;;;8.39;27.97;98635.69;5057670;28;20048;-67
2023/03/02 11:06:54;;;;;;;2.17;1.77;;;;;;;8.36;27.88;98625.44;5074454;28;20132;-64
2023/03/02 11:09:20;;;;;;;3.10;2.00;;;;;;;8.11;27.99;98629.94;5040770;28;20138;-64
2023/03/02 11:11:55;;;;;;;4.53;2.00;;;;;;;8.48;28.13;98627.56;5059065;28;20059;-64
2023/03/02 11:14:22;;;;;;;2.00;1.63;;;;;;;7.70;28.52;98620.38;5044827;28;20051;-64
2023/03/02 11:16:51;;;;;;;2.07;1.70;;;;;;;7.93;28.65;98607.31;5044873;28;20044;-64
2023/03/02 11:19:33;;;;;;;5.17;2.17;;;;;;;8.12;28.80;98599.84;5061421;28;20052;-64
2023/03/02 11:22:03;;;;;;;2.90;2.00;;;;;;;8.19;29.06;98600.00;5077934;28;20376;-64
2023/03/02 11:24:40;;;;;;;3.03;2.00;;;;;;;7.23;30.18;98569.13;5060981;28;20515;-64
2023/03/02 11:27:12;;;;;;;3.40;1.90;;;;;;;7.55;30.08;98594.75;5061305;28;20085;-64
2023/03/02 11:29:46;;;;;;;3.03;1.93;;;;;;;7.56;30.29;98586.66;5061181;28;20052;-66
2023/03/02 11:32:17;;;;;;;2.70;1.90;;;;;;;6.74;31.29;98584.00;5044598;28;20040;-64
2023/03/02 11:34:48;;;;;;;7.35;2.20;;;;;;;6.85;31.36;98578.44;5028031;28;20051;-64
2023/03/02 11:37:35;;;;;;;2.33;1.90;;;;;;;7.16;30.89;98554.09;5060541;28;20044;-65
2023/03/02 11:40:21;;;;;;;2.27;1.50;;;;;;;6.31;32.76;98560.41;5044024;28;20064;-65
2023/03/02 11:42:47;;;;;;;3.03;1.80;;;;;;;6.26;32.34;98551.31;5060397;28;20040;-64
2023/03/02 11:45:13;;;;;;;3.00;1.90;;;;;;;6.05;32.63;98543.81;5044248;28;20480;-65
2023/03/02 11:47:41;;;;;;;3.60;1.60;;;;;;;5.32;34.60;98544.22;5060680;28;20047;-65
2023/03/02 11:50:11;;;;;;;2.70;1.50;;;;;;;5.51;34.46;98561.66;5044102;28;20471;-64